Strona główna
METAR-TAF:

METAR-TAF

Lotnisko :

Wiscasset Airport

Wiscasset, Maine, Stany Zjednoczone

Szerokość geograficzna: 43-57-49N, Długość geograficzna: 069-42-42W, wysokość: 20 m

Aktualna obserwacja pogody

Raport powstał 38 minut temu, godzina 02:53 UTC
Wiatr 5 kt z kierunków zmiennych w porywach dochodzący do 19 kt
Temperatura 6°C
Wilgotność 75%
Ciśnienie 1015 hPa
Widzialność: 16.1 km
Zachmurzenie całkowite na wysokości 2000 ft

METAR: KIWI 040253Z AUTO VRB05G19KT 10SM OVC020 06/02 A2998 RMK AO2 SLP151 60001 T00610022 51026

czas: 23:31 (03:31 UTC)


TAF: brakujący

Obserwacja i prognoza pogody dla ponad 4000 lotnisk (raport METAR i TAF).

Dostępne stacje oznaczono żółtymi i czerwonymi punktami na mapie.

Najedź kursorem aby zobaczyć nazwę stacji.

Kliknij aby zobaczyć obserwacje i prognozy pogody.

Aby zmienić mapę: kliknij na zielony przycisk z czarnym krzyżykiem, aby powiększyć; na zielony przycisk z myślnikiem, aby pomniejszyć; na zielone strzałki, aby przejść do map sąsiednich.


METAR-TAF: